Time;durP1;ratioP1;P1;durP2;ratioP2;P2;SDS_P1;SDS_P2;PMS_P1;PMS_P2;Temp;Humidity;BMP_temperature;BMP_pressure;BME280_temperature;BME280_humidity;BME280_pressure;Samples;Min_cycle;Max_cycle;Signal;HPM_P1;HPM_P2
2022/08/31 00:05:46;;;;;;;0.90;0.60;;;20.00;46.10;;;22.54;36.59;102320.00;5052860;28;20186;-61
2022/08/31 00:08:13;;;;;;;3.30;0.70;;;20.00;46.40;;;22.50;36.74;102312.59;5068699;28;20193;-62
2022/08/31 00:10:46;;;;;;;0.60;0.60;;;19.90;46.40;;;22.44;36.84;102314.28;5051803;28;20209;-63
2022/08/31 00:13:14;;;;;;;0.50;0.50;;;19.80;46.70;;;22.39;37.32;102315.97;5052684;28;20213;-63
2022/08/31 00:15:44;;;;;;;0.70;0.70;;;19.80;46.90;;;22.39;37.20;102315.97;5052592;28;20182;-62
2022/08/31 00:18:13;;;;;;;0.70;0.70;;;19.70;47.20;;;22.40;36.93;102320.28;5052278;28;20186;-63
2022/08/31 00:20:41;;;;;;;0.70;0.70;;;19.80;47.30;;;22.39;37.41;102315.97;5051899;28;20186;-63
2022/08/31 00:23:14;;;;;;;1.43;0.90;;;19.80;47.50;;;22.39;37.16;102316.81;5051291;28;20221;-63
2022/08/31 00:25:47;;;;;;;0.60;0.60;;;19.80;47.40;;;22.37;37.70;102318.84;5056470;28;20193;-61
2022/08/31 00:28:16;;;;;;;1.00;0.90;;;19.80;47.50;;;22.39;37.87;102316.81;5056253;28;20300;-63
2022/08/31 00:30:45;;;;;;;0.60;0.60;;;19.80;47.70;;;22.36;37.61;102325.28;5055892;28;20201;-62
2022/08/31 00:33:13;;;;;;;1.57;0.70;;;19.70;47.50;;;22.32;37.70;102316.00;5058182;28;20221;-62
2022/08/31 00:35:41;;;;;;;0.70;0.70;;;19.70;47.70;;;22.30;37.92;102318.06;5056106;28;20190;-63
2022/08/31 00:38:11;;;;;;;0.93;0.73;;;19.70;47.90;;;22.29;37.70;102327.16;5073693;28;20549;-63
2022/08/31 00:40:42;;;;;;;0.80;0.80;;;19.70;48.00;;;22.27;38.23;102325.72;5075540;28;20613;-63
2022/08/31 00:43:29;;;;;;;1.53;0.70;;;19.60;48.10;;;22.27;38.22;102323.03;5075998;28;20229;-63
2022/08/31 00:45:56;;;;;;;0.70;0.70;;;19.60;48.20;;;22.25;37.91;102326.75;5058177;28;20205;-63
2022/08/31 00:48:24;;;;;;;0.70;0.70;;;19.60;48.20;;;22.25;38.38;102325.91;5055984;28;20189;-63
2022/08/31 00:50:51;;;;;;;2.03;0.77;;;19.60;48.30;;;22.23;38.37;102331.50;5055446;28;20190;-63
2022/08/31 00:53:20;;;;;;;2.33;0.80;;;19.60;48.40;;;22.19;38.63;102337.50;5055392;28;20241;-64
2022/08/31 00:55:48;;;;;;;0.80;0.80;;;19.60;48.40;;;22.15;38.29;102338.97;5055500;28;20190;-63
2022/08/31 00:58:16;;;;;;;0.97;0.70;;;19.50;48.50;;;22.10;38.05;102341.47;5055695;28;20185;-63
2022/08/31 01:00:45;;;;;;;2.27;0.70;;;19.50;48.50;;;22.03;38.28;102343.34;5054966;28;20197;-63
2022/08/31 01:03:14;;;;;;;1.60;0.93;;;19.40;48.70;;;21.94;38.80;102344.63;5055606;28;20678;-64
2022/08/31 01:05:42;;;;;;;0.87;0.87;;;19.30;48.80;;;21.87;38.71;102349.16;5055369;28;20201;-64
2022/08/31 01:08:10;;;;;;;1.50;0.77;;;19.30;49.00;;;21.84;39.15;102346.88;5055411;28;20189;-64
2022/08/31 01:10:43;;;;;;;1.00;0.87;;;19.20;49.40;;;21.82;39.06;102346.25;5055111;28;20631;-63
2022/08/31 01:13:13;;;;;;;1.13;0.73;;;19.20;49.40;;;21.82;39.51;102347.06;5055406;28;20221;-62
2022/08/31 01:15:49;;;;;;;0.63;0.63;;;19.20;49.60;;;21.80;39.57;102342.97;5070485;28;20190;-64
2022/08/31 01:18:23;;;;;;;1.00;0.73;;;19.20;49.80;;;21.79;39.23;102347.50;5055395;28;20182;-62
2022/08/31 01:21:02;;;;;;;1.07;0.77;;;19.20;49.90;;;21.75;39.84;102351.59;5054916;28;20228;-63
2022/08/31 01:23:37;;;;;;;0.83;0.63;;;19.20;50.00;;;21.73;40.00;102350.19;5070344;28;20206;-64
2022/08/31 01:26:09;;;;;;;0.90;0.67;;;19.20;50.10;;;21.75;39.72;102350.81;5054941;28;20582;-64
2022/08/31 01:28:36;;;;;;;1.27;0.90;;;19.10;50.10;;;21.73;39.89;102350.19;5055254;28;20654;-64
2022/08/31 01:31:08;;;;;;;0.70;0.70;;;19.10;50.20;;;21.71;39.50;102350.38;5054495;28;20204;-64
2022/08/31 01:33:38;;;;;;;1.60;0.83;;;19.10;50.20;;;21.72;40.11;102344.00;5062400;28;20221;-63
2022/08/31 01:36:09;;;;;;;0.60;0.57;;;19.10;50.20;;;21.72;40.13;102346.69;5073359;28;20185;-64
2022/08/31 01:38:44;;;;;;;0.60;0.60;;;19.20;50.30;;;21.69;40.15;102336.38;5054725;28;20284;-63
2022/08/31 01:41:13;;;;;;;0.80;0.80;;;19.10;50.30;;;21.65;39.73;102345.03;5054459;28;20197;-64
2022/08/31 01:43:40;;;;;;;0.80;0.67;;;19.10;50.40;;;21.62;40.47;102342.75;5054652;28;20210;-64
2022/08/31 01:46:12;;;;;;;1.00;0.80;;;19.00;50.40;;;21.57;40.42;102338.84;5056068;28;20192;-63
2022/08/31 01:48:42;;;;;;;2.67;0.80;;;19.00;50.70;;;21.59;40.57;102336.78;5055607;28;20670;-64
2022/08/31 01:51:13;;;;;;;0.80;0.80;;;19.00;50.70;;;21.61;39.93;102333.09;5055138;28;20197;-63
2022/08/31 01:53:45;;;;;;;0.97;0.80;;;19.00;50.90;;;21.61;40.59;102335.78;5054011;28;20218;-63
2022/08/31 01:56:19;;;;;;;0.87;0.80;;;19.00;50.90;;;21.59;40.43;102330.59;5055253;28;20312;-63
2022/08/31 01:58:46;;;;;;;1.83;0.90;;;19.00;50.90;;;21.58;40.39;102345.03;5055129;28;20178;-64
2022/08/31 02:01:14;;;;;;;1.00;0.73;;;18.90;50.90;;;21.56;40.64;102337.19;5054840;28;20194;-62
2022/08/31 02:04:02;;;;;;;1.80;0.60;;;18.90;51.20;;;21.53;40.84;102347.53;5055246;28;20185;-64
2022/08/31 02:06:31;;;;;;;0.70;0.70;;;18.90;51.30;;;21.51;40.92;102334.31;5054927;28;20577;-63
2022/08/31 02:09:02;;;;;;;0.77;0.77;;;18.90;51.40;;;21.48;40.48;102345.47;5054536;28;20193;-63
2022/08/31 02:11:29;;;;;;;0.93;0.70;;;18.90;51.60;;;21.47;41.05;102346.47;5053978;28;20206;-62
2022/08/31 02:13:57;;;;;;;0.87;0.73;;;18.90;51.70;;;21.47;41.18;102351.84;5054176;28;20221;-64
2022/08/31 02:16:25;;;;;;;1.13;0.80;;;18.80;51.70;;;21.46;40.67;102346.69;5054026;28;20190;-64
2022/08/31 02:18:52;;;;;;;0.80;0.77;;;18.80;51.80;;;21.45;40.95;102345.03;5069421;28;20200;-63
2022/08/31 02:21:20;;;;;;;1.40;0.97;;;18.80;51.80;;;21.44;41.11;102346.88;5053555;28;20201;-64
2022/08/31 02:23:48;;;;;;;0.90;0.90;;;18.80;51.90;;;21.44;41.36;102346.88;5053920;28;20526;-63
2022/08/31 02:26:17;;;;;;;1.30;1.10;;;18.80;52.00;;;21.46;41.27;102342.16;5060275;28;20200;-64
2022/08/31 02:28:45;;;;;;;2.50;1.00;;;18.80;52.00;;;21.43;41.43;102345.25;5074136;28;20189;-64
2022/08/31 02:31:13;;;;;;;1.30;1.07;;;18.80;52.00;;;21.39;41.46;102352.06;5073279;28;20197;-64
2022/08/31 02:33:42;;;;;;;1.03;0.93;;;18.80;52.20;;;21.37;40.97;102343.38;5064747;28;20212;-64
2022/08/31 02:36:10;;;;;;;1.70;1.27;;;18.70;52.10;;;21.36;41.43;102344.44;5054886;28;20196;-64
2022/08/31 02:38:39;;;;;;;1.43;1.10;;;18.70;52.30;;;21.37;41.63;102338.03;5073944;28;20189;-64
2022/08/31 02:41:08;;;;;;;1.07;0.97;;;18.80;52.50;;;21.35;41.76;102337.41;5073254;28;20189;-64
2022/08/31 02:43:37;;;;;;;1.17;0.90;;;18.70;52.40;;;21.33;41.36;102334.13;5073476;28;20213;-63
2022/08/31 02:46:05;;;;;;;3.83;0.83;;;18.70;53.00;;;21.31;41.89;102343.38;5054636;28;20664;-64
2022/08/31 02:48:34;;;;;;;0.97;0.90;;;18.70;52.50;;;21.28;41.83;102341.94;5053510;28;20289;-64
2022/08/31 02:51:06;;;;;;;3.00;1.03;;;18.70;52.70;;;21.26;41.67;102335.97;5052906;28;20181;-63
2022/08/31 02:53:34;;;;;;;1.53;0.90;;;18.60;52.70;;;21.24;42.17;102338.03;5053605;28;20212;-63
2022/08/31 02:56:02;;;;;;;1.03;0.90;;;18.60;52.80;;;21.23;41.50;102341.72;5053460;28;20200;-64
2022/08/31 02:58:30;;;;;;;2.53;1.00;;;18.60;52.90;;;21.22;41.59;102337.44;5053209;28;20190;-63
2022/08/31 03:00:59;;;;;;;0.70;0.70;;;18.60;53.00;;;21.21;42.38;102342.97;5052608;28;20201;-64
2022/08/31 03:03:26;;;;;;;0.60;0.60;;;18.60;53.20;;;21.21;41.69;102333.09;5053389;28;20557;-62
2022/08/31 03:05:54;;;;;;;1.70;0.90;;;18.60;52.90;;;21.18;42.36;102327.31;5053119;28;20216;-63
2022/08/31 03:08:21;;;;;;;4.27;1.07;;;18.60;53.40;;;21.17;41.88;102331.03;5053088;28;20189;-62
2022/08/31 03:10:48;;;;;;;2.17;0.93;;;18.50;53.30;;;21.14;42.03;102334.09;5052769;28;20197;-63
2022/08/31 03:13:16;;;;;;;1.20;1.10;;;18.50;53.40;;;21.11;42.47;102329.19;5053532;28;20213;-62
2022/08/31 03:15:44;;;;;;;0.80;0.80;;;18.50;53.50;;;21.06;41.88;102329.75;5053993;28;20190;-62
2022/08/31 03:18:12;;;;;;;2.43;1.10;;;18.50;53.80;;;20.94;42.37;102334.06;5054289;28;20255;-62
2022/08/31 03:20:40;;;;;;;1.53;0.80;;;18.40;53.70;;;20.87;42.85;102331.34;5053026;28;20646;-63
2022/08/31 03:23:08;;;;;;;2.40;1.13;;;18.30;53.70;;;20.83;42.47;102327.44;5048515;28;20231;-63
2022/08/31 03:25:36;;;;;;;1.17;1.00;;;18.20;53.90;;;20.78;42.79;102332.56;5033046;28;20269;-63
2022/08/31 03:28:06;;;;;;;2.00;0.90;;;18.20;54.10;;;20.75;42.74;102332.16;5033023;28;20190;-63
2022/08/31 03:30:33;;;;;;;1.00;0.90;;;18.10;54.20;;;20.72;43.15;102333.41;5033320;28;20199;-63
2022/08/31 03:33:02;;;;;;;1.50;1.30;;;18.10;54.40;;;20.70;42.79;102326.59;5038954;28;20732;-63
2022/08/31 03:35:31;;;;;;;1.47;1.00;;;18.10;54.50;;;20.64;43.17;102330.91;5073237;28;20220;-64
2022/08/31 03:38:01;;;;;;;1.07;1.00;;;18.00;54.80;;;20.60;43.26;102328.81;5056547;28;20666;-64
2022/08/31 03:40:29;;;;;;;2.20;1.63;;;17.90;55.00;;;20.57;43.70;102329.22;5052953;28;20200;-63
2022/08/31 03:42:57;;;;;;;1.37;1.23;;;17.90;55.50;;;20.55;44.01;102334.78;5052813;28;20277;-63
2022/08/31 03:45:26;;;;;;;2.43;1.50;;;17.90;55.40;;;20.57;43.77;102329.22;5053157;28;20189;-63
2022/08/31 03:47:54;;;;;;;1.00;0.93;;;17.90;55.40;;;20.57;44.17;102326.53;5052989;28;20243;-63
2022/08/31 03:50:21;;;;;;;0.90;0.90;;;18.00;55.60;;;20.58;43.68;102329.03;5052674;28;20215;-63
2022/08/31 03:52:52;;;;;;;1.60;1.20;;;17.90;55.40;;;20.57;43.69;102327.38;5053036;28;20210;-64
2022/08/31 03:55:20;;;;;;;1.20;1.10;;;17.90;55.40;;;20.57;43.83;102332.72;5052626;28;20224;-63
2022/08/31 03:57:47;;;;;;;1.13;0.93;;;17.90;55.40;;;20.56;43.59;102343.63;5052436;28;20671;-64
2022/08/31 04:00:15;;;;;;;1.23;1.10;;;17.90;55.30;;;20.51;43.74;102338.88;5056425;28;20201;-63
2022/08/31 04:02:43;;;;;;;0.90;0.90;;;17.90;55.50;;;20.49;44.25;102345.47;5055983;28;20520;-63
2022/08/31 04:05:12;;;;;;;1.50;1.30;;;17.90;55.80;;;20.50;43.83;102339.91;5056488;28;20693;-63
2022/08/31 04:07:40;;;;;;;1.10;1.00;;;17.90;55.80;;;20.50;43.92;102347.09;5056001;28;20217;-62
2022/08/31 04:10:13;;;;;;;3.13;1.20;;;17.80;55.80;;;20.47;43.93;102350.16;5056269;28;20229;-63
2022/08/31 04:12:40;;;;;;;3.17;1.03;;;17.80;55.90;;;20.42;44.24;102348.09;5055905;28;20209;-64
2022/08/31 04:15:09;;;;;;;2.80;1.30;;;17.80;55.90;;;20.40;44.47;102346.63;5056279;28;20224;-63
2022/08/31 04:17:37;;;;;;;1.10;1.10;;;17.80;56.10;;;20.37;44.66;102347.06;5055771;28;20190;-64
2022/08/31 04:20:06;;;;;;;1.17;1.03;;;17.80;56.20;;;20.36;44.34;102348.06;5055992;28;20202;-63
2022/08/31 04:22:34;;;;;;;1.10;1.00;;;17.70;56.10;;;20.32;44.58;102349.50;5055556;28;20229;-63
2022/08/31 04:25:01;;;;;;;1.00;1.00;;;17.70;56.40;;;20.29;44.37;102352.56;5056129;28;20186;-63
2022/08/31 04:27:30;;;;;;;1.13;1.03;;;17.60;56.30;;;20.24;44.84;102350.50;5056232;28;20190;-63
2022/08/31 04:29:58;;;;;;;2.77;1.23;;;17.60;56.50;;;20.19;44.63;102350.22;5055702;28;20190;-64
2022/08/31 04:32:25;;;;;;;2.07;1.87;;;17.50;56.60;;;20.19;45.30;102359.06;5055591;28;20206;-65
2022/08/31 04:34:54;;;;;;;1.30;1.20;;;17.60;56.80;;;20.19;45.13;102360.91;5074621;28;20246;-63
2022/08/31 04:37:22;;;;;;;2.73;1.43;;;17.50;56.90;;;20.16;45.46;102358.63;5064170;28;20627;-64
2022/08/31 04:39:50;;;;;;;2.80;1.27;;;17.50;57.00;;;20.14;45.76;102366.88;5055933;28;20197;-65
2022/08/31 04:42:18;;;;;;;2.70;1.10;;;17.50;57.20;;;20.14;45.73;102361.50;5055480;28;20224;-64
2022/08/31 04:44:47;;;;;;;4.20;1.80;;;17.50;57.50;;;20.14;45.53;102372.22;5054888;28;20216;-63
2022/08/31 04:47:14;;;;;;;2.50;1.50;;;17.50;57.70;;;20.15;45.92;102365.84;5055865;28;20190;-64
2022/08/31 04:49:42;;;;;;;2.63;1.33;;;17.60;57.60;;;20.15;45.62;102365.84;5055685;28;20213;-64
2022/08/31 04:52:09;;;;;;;2.23;1.60;;;17.50;57.20;;;20.13;45.91;102370.53;5055675;28;20209;-64
2022/08/31 04:54:36;;;;;;;1.97;1.27;;;17.50;57.60;;;20.12;45.53;102376.09;5058050;28;20233;-63
2022/08/31 04:57:04;;;;;;;2.07;1.03;;;17.50;57.70;;;20.13;45.34;102378.56;5057032;28;20272;-64
2022/08/31 04:59:31;;;;;;;1.10;1.00;;;17.50;57.70;;;20.16;45.83;102378.19;5055552;28;20688;-63
2022/08/31 05:02:00;;;;;;;1.50;1.20;;;17.50;57.50;;;20.19;45.59;102385.81;5055074;28;20344;-62
2022/08/31 05:04:28;;;;;;;1.43;1.30;;;17.50;57.60;;;20.19;45.66;102380.47;5055664;28;20186;-63
2022/08/31 05:06:56;;;;;;;1.50;1.27;;;17.50;57.60;;;20.21;45.73;102386.44;5054949;28;20561;-62
2022/08/31 05:09:23;;;;;;;11.33;10.17;;;17.50;57.80;;;20.21;45.73;102383.78;5055164;28;20204;-64
2022/08/31 05:11:53;;;;;;;11.33;8.20;;;17.50;57.80;;;20.21;45.48;102389.13;5053910;28;20209;-63
2022/08/31 05:14:22;;;;;;;2.07;1.70;;;17.50;57.90;;;20.22;45.54;102385.47;5054576;28;20209;-63
2022/08/31 05:16:50;;;;;;;1.93;1.77;;;17.50;57.70;;;20.21;45.70;102389.13;5055001;28;20266;-63
2022/08/31 05:19:19;;;;;;;2.60;1.20;;;17.50;57.90;;;20.20;45.69;102387.50;5054569;28;20530;-65
2022/08/31 05:21:47;;;;;;;2.53;1.70;;;17.50;57.80;;;20.22;45.36;102396.16;5054318;28;20631;-63
2022/08/31 05:24:20;;;;;;;1.87;1.47;;;17.50;57.90;;;20.23;45.53;102395.13;5054960;28;20655;-63
2022/08/31 05:26:50;;;;;;;2.83;1.93;;;17.50;57.90;;;20.25;45.61;102400.28;5054607;28;20192;-63
2022/08/31 05:29:22;;;;;;;3.10;1.33;;;17.60;58.00;;;20.25;45.80;102395.75;5054268;28;20637;-64
2022/08/31 05:31:50;;;;;;;3.73;1.60;;;17.60;58.00;;;20.30;45.63;102391.69;5052907;28;20293;-65
2022/08/31 05:34:22;;;;;;;2.60;1.30;;;17.60;58.60;;;20.32;45.17;102395.81;5057256;28;20221;-63
2022/08/31 05:36:53;;;;;;;1.70;1.43;;;17.60;57.80;;;20.36;45.41;102396.22;5061186;28;20197;-64
2022/08/31 05:39:22;;;;;;;2.53;1.83;;;17.60;57.80;;;20.40;45.15;102392.13;5074375;28;20197;-65
2022/08/31 05:41:50;;;;;;;1.73;1.43;;;17.60;57.80;;;20.43;45.22;102397.91;5073632;28;20292;-64
2022/08/31 05:44:19;;;;;;;2.47;1.90;;;17.70;57.70;;;20.47;45.32;102390.28;5069807;28;20194;-64
2022/08/31 05:46:48;;;;;;;3.63;2.17;;;17.70;57.50;;;20.48;45.60;102392.78;5054472;28;20230;-65
2022/08/31 05:49:25;;;;;;;3.83;2.10;;;17.80;57.60;;;20.53;45.43;102397.53;5054338;28;20196;-64
2022/08/31 05:51:55;;;;;;;14.63;10.40;;;17.80;57.50;;;20.58;45.35;102395.09;5053745;28;20209;-64
2022/08/31 05:54:22;;;;;;;3.87;3.37;;;17.90;57.40;;;20.61;45.04;102400.06;5054208;28;20689;-64
2022/08/31 05:56:50;;;;;;;3.50;1.80;;;17.90;57.30;;;20.63;45.32;102398.84;5054363;28;20216;-65
2022/08/31 05:59:17;;;;;;;3.50;1.60;;;17.90;57.30;;;20.67;44.70;102404.59;5054110;28;20238;-61
2022/08/31 06:01:45;;;;;;;4.07;1.57;;;18.00;57.40;;;20.72;44.71;102403.00;5053814;28;20675;-64
2022/08/31 06:04:13;;;;;;;4.20;2.80;;;18.00;57.40;;;20.77;45.15;102405.88;5054211;28;20198;-64
2022/08/31 06:06:42;;;;;;;4.70;3.10;;;18.10;57.30;;;20.78;44.85;102402.16;5053387;28;20193;-63
2022/08/31 06:09:10;;;;;;;4.90;2.00;;;18.10;57.40;;;20.84;44.88;102405.91;5053551;28;20186;-63
2022/08/31 06:11:40;;;;;;;3.20;1.73;;;18.10;57.30;;;20.91;44.80;102404.06;5053336;28;20237;-65
2022/08/31 06:14:10;;;;;;;4.50;1.73;;;18.20;57.30;;;20.96;44.45;102406.97;5053790;28;20194;-64
2022/08/31 06:16:43;;;;;;;6.57;2.90;;;18.20;57.10;;;21.02;44.87;102414.19;5053418;28;20189;-65
2022/08/31 06:19:11;;;;;;;6.50;4.60;;;18.30;57.20;;;21.10;44.56;102411.38;5053223;28;20175;-62
2022/08/31 06:21:48;;;;;;;2.60;2.03;;;18.40;57.10;;;21.18;44.66;102419.19;5053233;28;20240;-64
2022/08/31 06:24:17;;;;;;;4.07;3.07;;;18.40;57.00;;;21.25;44.16;102408.53;5053536;28;20189;-64
2022/08/31 06:26:54;;;;;;;3.27;1.80;;;18.50;57.00;;;21.34;43.93;102416.16;5053006;28;20194;-64
2022/08/31 06:29:27;;;;;;;2.17;1.90;;;18.50;56.80;;;21.39;43.99;102411.00;5053022;28;20197;-65
2022/08/31 06:31:55;;;;;;;13.80;11.87;;;18.60;56.80;;;21.47;43.88;102418.00;5053401;28;20210;-63
2022/08/31 06:34:23;;;;;;;3.40;2.33;;;18.70;56.80;;;21.56;43.65;102422.97;5067141;28;20208;-64
2022/08/31 06:36:52;;;;;;;2.63;1.70;;;18.80;56.70;;;21.65;43.33;102420.09;5066189;28;20193;-64
2022/08/31 06:39:19;;;;;;;6.50;2.80;;;18.80;56.50;;;21.72;43.68;102421.75;5053133;28;20217;-64
2022/08/31 06:41:48;;;;;;;3.47;2.20;;;18.90;56.40;;;21.78;43.61;102436.16;5053248;28;20209;-64
2022/08/31 06:44:15;;;;;;;8.47;7.20;;;19.00;56.40;;;21.84;43.14;102427.31;5052218;28;20631;-65
2022/08/31 06:46:42;;;;;;;3.67;3.23;;;19.00;56.30;;;21.89;43.37;102425.69;5052690;28;20269;-64
2022/08/31 06:49:14;;;;;;;2.17;1.97;;;19.10;56.20;;;21.98;43.26;102423.59;5053770;28;20587;-66
2022/08/31 06:51:42;;;;;;;3.00;1.80;;;19.20;56.20;;;22.07;43.28;102425.03;5052802;28;20213;-64
2022/08/31 06:54:14;;;;;;;3.93;1.60;;;19.20;56.10;;;22.11;42.92;102427.09;5052816;28;20198;-62
2022/08/31 06:56:57;;;;;;;2.37;1.50;;;19.30;55.90;;;22.16;43.04;102424.59;5052701;28;20715;-64
2022/08/31 06:59:25;;;;;;;2.70;1.67;;;19.30;55.80;;;22.21;43.21;102427.50;5052511;28;20197;-65
2022/08/31 07:01:57;;;;;;;1.87;1.47;;;19.40;55.90;;;22.25;42.80;102419.84;5052272;28;20222;-62
2022/08/31 07:04:26;;;;;;;8.47;7.67;;;19.40;55.70;;;22.29;42.82;102422.94;5052666;28;20551;-63
2022/08/31 07:06:53;;;;;;;2.57;2.10;;;19.50;55.80;;;22.33;42.89;102419.63;5052315;28;20186;-64
2022/08/31 07:09:23;;;;;;;1.33;1.23;;;19.50;55.60;;;22.39;42.68;102424.16;5052841;28;20198;-64
2022/08/31 07:11:52;;;;;;;6.27;5.67;;;19.60;55.70;;;22.40;42.54;102423.09;5052310;28;20233;-64
2022/08/31 07:14:23;;;;;;;3.33;1.43;;;19.60;55.60;;;22.43;42.92;102425.38;5052763;28;20206;-67
2022/08/31 07:16:53;;;;;;;2.73;1.90;;;19.60;55.60;;;22.55;43.01;102423.69;5052230;28;20200;-64
2022/08/31 07:19:21;;;;;;;2.13;1.20;;;19.70;55.80;;;22.95;42.26;102428.91;5052107;28;20200;-63
2022/08/31 07:21:51;;;;;;;2.03;1.60;;;19.80;56.10;;;23.51;41.52;102432.50;5051680;28;20281;-64
2022/08/31 07:24:24;;;;;;;1.20;1.10;;;20.00;56.00;;;24.19;40.40;102422.63;5053375;28;20182;-64
2022/08/31 07:26:56;;;;;;;2.90;1.30;;;20.40;55.40;;;24.92;39.06;102426.09;5054167;28;20292;-62
2022/08/31 07:29:29;;;;;;;1.93;1.20;;;20.80;54.60;;;25.73;37.34;102420.13;5052382;28;20678;-64
2022/08/31 07:31:58;;;;;;;2.13;1.07;;;21.30;53.50;;;26.54;36.58;102431.72;5051833;28;20292;-64
2022/08/31 07:34:29;;;;;;;1.70;1.00;;;22.00;52.50;;;27.40;35.10;102434.22;5066794;28;20193;-63
2022/08/31 07:42:38;;;;;;;2.20;1.33;;;24.00;48.20;;;30.06;30.65;102426.81;5051755;28;20213;-65
2022/08/31 07:45:11;;;;;;;2.83;1.30;;;24.70;46.50;;;30.91;29.13;102431.00;5051530;28;20278;-65
2022/08/31 07:47:45;;;;;;;1.63;1.50;;;25.30;44.70;;;31.60;28.72;102434.91;5052076;28;20627;-63
2022/08/31 07:50:15;;;;;;;2.30;1.10;;;26.00;43.50;;;32.31;27.24;102437.47;5052347;28;20184;-64
2022/08/31 07:52:47;;;;;;;1.90;1.17;;;26.50;42.00;;;33.04;26.12;102431.19;5051644;28;20304;-63
2022/08/31 07:55:17;;;;;;;1.23;1.10;;;27.10;40.60;;;33.72;25.88;102431.16;5052043;28;20292;-64
2022/08/31 07:57:45;;;;;;;2.93;2.03;;;27.60;39.20;;;34.19;24.99;102425.75;5051968;28;20186;-64
2022/08/31 08:00:18;;;;;;;4.13;2.47;;;28.10;37.90;;;34.52;24.35;102424.78;5051800;28;20284;-64
2022/08/31 08:02:48;;;;;;;1.63;1.53;;;28.60;37.00;;;34.73;23.97;102434.38;5051942;28;20235;-64
2022/08/31 08:05:22;;;;;;;3.40;3.10;;;28.90;36.40;;;34.71;23.58;102438.50;5051895;28;20222;-64
2022/08/31 08:08:04;;;;;;;1.90;1.50;;;29.10;35.50;;;34.70;23.96;102431.41;5052018;28;20189;-64
2022/08/31 08:10:42;;;;;;;2.03;1.50;;;29.30;34.70;;;34.78;23.42;102432.69;5051379;28;20327;-64
2022/08/31 08:13:13;;;;;;;1.30;1.23;;;29.40;34.10;;;34.90;23.28;102431.09;5051644;28;20232;-63
2022/08/31 08:15:40;;;;;;;1.50;1.40;;;29.40;34.00;;;35.08;23.08;102429.50;5051686;28;20256;-63
2022/08/31 08:18:10;;;;;;;1.80;1.30;;;29.60;33.60;;;35.09;22.96;102422.94;5052056;28;20194;-63
2022/08/31 08:20:39;;;;;;;2.87;1.27;;;29.70;33.50;;;35.32;22.35;102432.97;5051714;28;20190;-63
2022/08/31 08:23:10;;;;;;;1.63;1.53;;;29.80;32.70;;;35.58;21.98;102436.91;5051685;28;20320;-64
2022/08/31 08:25:43;;;;;;;1.37;1.27;;;30.00;32.10;;;36.05;21.92;102440.44;5051339;28;20179;-63
2022/08/31 08:28:16;;;;;;;2.43;2.23;;;30.30;32.00;;;36.43;21.06;102441.84;5066684;28;20638;-64
2022/08/31 08:31:05;;;;;;;2.67;2.47;;;30.60;31.50;;;37.10;20.78;102435.44;5051544;28;20252;-63
2022/08/31 08:33:34;;;;;;;10.43;1.80;;;30.90;30.70;;;37.73;19.14;102437.94;5058109;28;20217;-65
2022/08/31 08:36:06;;;;;;;1.52;1.20;;;31.20;29.40;;;38.17;18.91;102447.19;5071588;28;20553;-65
2022/08/31 08:38:38;;;;;;;0.98;0.98;;;31.60;29.50;;;38.46;18.50;102445.53;5051730;28;20319;-64
2022/08/31 08:41:14;;;;;;;4.70;1.83;;;31.90;28.50;;;38.85;18.44;102441.84;5051339;28;20198;-64
2022/08/31 08:43:45;;;;;;;2.70;1.40;;;32.20;28.30;;;39.36;18.18;102441.03;5051588;28;20257;-65
2022/08/31 08:46:28;;;;;;;2.85;1.70;;;32.50;28.30;;;39.58;17.19;102440.78;5035436;28;20194;-65
2022/08/31 08:49:15;;;;;;;2.55;1.52;;;32.80;26.90;;;39.45;17.28;102443.75;5035290;28;20206;-64
2022/08/31 08:51:49;;;;;;;1.30;1.20;;;33.00;26.60;;;38.96;17.38;102442.34;5049736;28;20593;-64
2022/08/31 08:54:29;;;;;;;1.35;1.30;;;33.10;26.00;;;38.84;17.78;102440.25;5035650;28;20194;-62
2022/08/31 08:57:12;;;;;;;2.63;1.20;;;33.20;26.30;;;39.20;17.48;102454.50;5035715;28;20575;-65
2022/08/31 08:59:42;;;;;;;2.75;1.50;;;33.30;26.40;;;39.57;17.24;102441.94;5054618;28;20946;-65
2022/08/31 09:02:16;;;;;;;1.30;1.20;;;33.40;26.00;;;39.92;16.84;102442.66;5054705;28;20241;-63
2022/08/31 09:05:16;;;;;;;7.53;6.82;;;33.60;25.60;;;40.52;16.47;102445.13;5054486;28;20609;-65
2022/08/31 09:08:15;;;;;;;3.33;1.95;;;33.70;25.50;;;41.13;16.04;102444.31;5045213;28;20658;-63
2022/08/31 09:10:57;;;;;;;1.55;1.45;;;34.00;25.40;;;41.55;15.72;102447.81;5052478;28;20210;-63
2022/08/31 09:13:42;;;;;;;3.80;1.77;;;34.40;25.10;;;41.85;15.62;102445.66;5054815;28;20206;-63
2022/08/31 09:16:27;;;;;;;1.40;1.30;;;34.70;25.00;;;41.50;14.84;102441.69;5054871;28;20208;-64
2022/08/31 09:18:59;;;;;;;2.38;1.42;;;34.90;23.60;;;41.37;15.25;102437.25;5054740;28;20206;-64
2022/08/31 09:21:33;;;;;;;1.40;1.30;;;35.00;23.60;;;41.48;14.65;102427.38;5053803;28;20607;-64
2022/08/31 09:24:07;;;;;;;5.47;1.65;;;35.00;23.30;;;41.78;14.90;102423.28;5054188;28;20179;-64
2022/08/31 09:26:55;;;;;;;1.90;1.80;;;35.20;23.40;;;42.24;14.46;102422.84;5054250;28;20177;-62
2022/08/31 09:29:30;;;;;;;1.88;1.70;;;35.40;23.10;;;42.65;14.43;102426.47;5069544;28;20174;-63
2022/08/31 09:32:04;;;;;;;1.10;1.00;;;35.70;23.20;;;42.66;13.83;102428.88;5054085;28;20296;-63
2022/08/31 09:34:36;;;;;;;1.58;1.27;;;35.80;22.30;;;42.61;13.68;102420.00;5069964;28;20187;-63
2022/08/31 09:37:15;;;;;;;1.95;1.40;;;35.90;22.20;;;42.75;14.25;102425.94;5081120;28;20222;-63
2022/08/31 09:39:48;;;;;;;1.35;1.20;;;36.00;22.50;;;42.97;13.73;102431.78;5054028;28;20211;-65
2022/08/31 09:42:29;;;;;;;2.30;1.42;;;36.10;22.10;;;43.11;13.51;102428.59;5054099;28;20217;-63
2022/08/31 09:45:04;;;;;;;1.38;1.38;;;36.10;21.60;;;43.06;12.83;102421.34;5053792;28;20277;-63
2022/08/31 09:47:49;;;;;;;2.15;1.77;;;36.10;21.10;;;42.95;13.28;102427.75;5053919;28;20214;-63
2022/08/31 09:50:30;;;;;;;1.48;1.38;;;36.30;21.40;;;42.92;12.79;102425.69;5054387;28;20249;-62
2022/08/31 09:56:14;;;;;;;1.30;1.20;;;36.40;21.20;;;43.71;12.43;102422.72;5052918;28;20213;-63
2022/08/31 09:58:46;;;;;;;2.42;1.50;;;36.50;20.60;;;43.87;12.51;102424.66;5053802;28;20201;-63
2022/08/31 10:01:23;;;;;;;3.88;3.58;;;36.60;20.50;;;43.80;12.12;102428.06;5054036;28;20268;-63
2022/08/31 10:04:15;;;;;;;2.78;2.55;;;36.70;20.30;;;43.84;12.36;102420.63;5053772;28;20182;-63
2022/08/31 10:06:54;;;;;;;1.65;1.55;;;36.80;20.50;;;44.12;11.98;102414.97;5053545;28;20174;-64
2022/08/31 10:09:34;;;;;;;1.50;1.40;;;36.80;20.00;;;44.06;12.11;102408.03;5053593;28;20181;-63
2022/08/31 10:12:10;;;;;;;1.30;1.20;;;36.90;20.20;;;44.14;11.91;102407.88;5053039;28;20655;-63
2022/08/31 10:14:49;;;;;;;1.65;1.40;;;36.80;20.20;;;44.30;12.25;102402.28;5053001;28;20260;-61
2022/08/31 10:17:27;;;;;;;2.78;1.60;;;36.90;20.30;;;44.59;12.03;102398.97;5053355;28;20634;-63
2022/08/31 10:20:08;;;;;;;3.92;2.17;;;36.90;20.40;;;44.97;12.15;102396.16;5053594;28;20507;-64
2022/08/31 10:22:40;;;;;;;2.65;1.80;;;37.10;20.40;;;44.94;11.60;102405.25;5053076;28;20216;-64
2022/08/31 10:25:25;;;;;;;2.05;1.85;;;37.10;19.80;;;44.80;11.12;102393.81;5053133;28;20199;-65
2022/08/31 10:28:02;;;;;;;1.40;1.30;;;37.20;19.60;;;44.86;11.48;102403.50;5053801;28;20182;-63
2022/08/31 10:30:41;;;;;;;1.30;1.20;;;37.30;19.70;;;44.63;11.95;102391.47;5052631;28;20215;-64
2022/08/31 10:33:18;;;;;;;2.30;1.73;;;37.40;19.80;;;44.17;12.04;102378.56;5057117;28;20224;-61
2022/08/31 10:35:57;;;;;;;1.52;1.42;;;37.40;19.60;;;43.28;12.47;102389.44;5072661;28;20215;-64
2022/08/31 10:38:34;;;;;;;1.30;1.20;;;37.30;19.80;;;42.16;13.17;102385.00;5053567;28;20186;-64
2022/08/31 10:41:13;;;;;;;5.82;2.20;;;37.10;19.40;;;41.03;13.25;102370.06;5052752;28;20193;-63
2022/08/31 10:43:49;;;;;;;2.17;1.98;;;36.70;19.40;;;40.17;14.03;102388.47;5052951;28;20221;-64